Time;durP1;ratioP1;P1;durP2;ratioP2;P2;SDS_P1;SDS_P2;PMS_P1;PMS_P2;Temp;Humidity;BMP_temperature;BMP_pressure;BME280_temperature;BME280_humidity;BME280_pressure;Samples;Min_cycle;Max_cycle;Signal;HPM_P1;HPM_P2
2021/03/16 00:00:44;;;;;;;15.83;12.33;;;4.70;99.90;;;;;;5073452;28;20265;-68
2021/03/16 00:03:09;;;;;;;12.23;10.50;;;4.70;99.90;;;;;;5073274;28;20189;-68
2021/03/16 00:05:35;;;;;;;14.47;11.40;;;4.70;99.90;;;;;;5073339;28;20189;-67
2021/03/16 00:08:01;;;;;;;13.33;11.00;;;4.70;99.90;;;;;;5071945;28;20698;-67
2021/03/16 00:10:26;;;;;;;16.10;11.40;;;4.70;99.90;;;;;;5073299;28;20414;-67
2021/03/16 00:12:52;;;;;;;13.33;11.23;;;4.70;99.90;;;;;;5076062;28;20190;-67
2021/03/16 00:15:17;;;;;;;15.83;11.73;;;4.80;99.90;;;;;;5077145;28;20173;-66
2021/03/16 00:17:43;;;;;;;13.27;11.87;;;4.70;99.90;;;;;;5076867;28;20173;-66
2021/03/16 00:20:09;;;;;;;13.30;10.37;;;4.70;99.90;;;;;;5076810;28;20204;-67
2021/03/16 00:22:35;;;;;;;17.23;10.90;;;4.70;99.90;;;;;;5076833;28;20661;-66
2021/03/16 00:25:01;;;;;;;15.00;11.60;;;4.70;99.90;;;;;;5076861;28;20181;-69
2021/03/16 00:27:26;;;;;;;13.90;11.03;;;4.80;99.90;;;;;;5076837;28;20184;-68
2021/03/16 00:29:52;;;;;;;15.73;11.33;;;4.80;99.90;;;;;;5076594;28;20208;-68
2021/03/16 00:32:17;;;;;;;14.10;11.33;;;4.90;99.90;;;;;;5077221;28;20567;-68
2021/03/16 00:34:43;;;;;;;15.60;12.07;;;4.90;99.90;;;;;;5076562;28;20197;-68
2021/03/16 00:37:09;;;;;;;13.20;11.57;;;4.80;99.90;;;;;;5077162;28;20177;-67
2021/03/16 00:39:34;;;;;;;18.43;12.40;;;4.70;99.90;;;;;;5076509;28;20280;-68
2021/03/16 00:42:00;;;;;;;17.33;12.70;;;4.70;99.90;;;;;;5076545;28;20236;-68
2021/03/16 00:44:25;;;;;;;16.43;12.47;;;4.70;99.90;;;;;;5076468;28;20694;-67
2021/03/16 00:46:51;;;;;;;15.17;12.13;;;4.70;99.90;;;;;;5076853;28;20174;-68
2021/03/16 00:49:17;;;;;;;15.10;12.30;;;4.70;99.90;;;;;;5075049;28;20193;-67
2021/03/16 00:51:42;;;;;;;15.47;11.77;;;4.60;99.90;;;;;;5075022;28;20192;-68
2021/03/16 00:54:08;;;;;;;15.13;12.60;;;4.50;99.90;;;;;;5076276;28;20670;-67
2021/03/16 00:56:33;;;;;;;18.23;11.10;;;4.50;99.90;;;;;;5076642;28;20185;-67
2021/03/16 00:59:00;;;;;;;17.23;12.40;;;4.50;99.90;;;;;;5074830;28;20213;-68
2021/03/16 01:01:25;;;;;;;17.25;13.05;;;4.40;99.90;;;;;;5076500;28;20186;-68
2021/03/16 01:03:51;;;;;;;14.97;12.63;;;4.40;99.90;;;;;;5075074;28;20193;-66
2021/03/16 01:06:17;;;;;;;15.80;11.70;;;4.40;99.90;;;;;;5076333;28;20256;-67
2021/03/16 01:08:42;;;;;;;14.73;11.90;;;4.40;99.90;;;;;;5075999;28;20200;-67
2021/03/16 01:11:08;;;;;;;15.43;12.87;;;4.30;99.90;;;;;;5076256;28;20173;-67
2021/03/16 01:13:34;;;;;;;17.30;12.60;;;4.30;99.90;;;;;;5074635;28;20662;-69
2021/03/16 01:15:59;;;;;;;21.33;12.90;;;4.30;99.90;;;;;;5076089;28;20533;-68
2021/03/16 01:18:25;;;;;;;13.50;12.00;;;4.30;99.90;;;;;;5074471;28;20217;-68
2021/03/16 01:20:51;;;;;;;14.10;11.98;;;4.30;99.90;;;;;;5075920;28;20181;-68
2021/03/16 01:23:16;;;;;;;18.90;11.93;;;4.20;99.90;;;;;;5075697;28;20192;-69
2021/03/16 01:25:42;;;;;;;15.60;12.33;;;4.30;99.90;;;;;;5075885;28;20256;-67
2021/03/16 01:28:08;;;;;;;14.47;11.83;;;4.20;99.90;;;;;;5075617;28;20193;-67
2021/03/16 01:30:35;;;;;;;17.33;12.57;;;4.20;99.90;;;;;;5075729;28;20181;-66
2021/03/16 01:33:00;;;;;;;12.25;10.93;;;4.20;99.90;;;;;;5074214;28;20208;-67
2021/03/16 01:35:26;;;;;;;14.63;12.53;;;4.20;99.90;;;;;;5074267;28;20177;-67
2021/03/16 01:37:56;;;;;;;14.40;11.40;;;4.20;99.90;;;;;;5075272;28;20250;-67
2021/03/16 01:40:40;;;;;;;14.88;11.75;;;4.20;99.90;;;;;;5074157;28;20229;-67
2021/03/16 01:43:16;;;;;;;18.25;12.20;;;4.20;99.90;;;;;;5075450;28;20232;-67
2021/03/16 01:45:45;;;;;;;17.05;12.68;;;4.20;99.90;;;;;;5075348;28;20311;-70
2021/03/16 01:48:12;;;;;;;16.02;12.60;;;4.20;99.90;;;;;;5073931;28;20200;-67
2021/03/16 01:50:39;;;;;;;13.43;11.35;;;4.30;99.90;;;;;;5075064;28;20192;-67
2021/03/16 01:53:06;;;;;;;17.33;12.50;;;4.30;99.90;;;;;;5073896;28;20255;-67
2021/03/16 01:55:32;;;;;;;17.70;13.00;;;4.40;99.90;;;;;;5075229;28;20177;-68
2021/03/16 01:57:58;;;;;;;14.73;11.40;;;4.40;99.90;;;;;;5074969;28;20193;-68
2021/03/16 02:00:30;;;;;;;16.23;12.10;;;4.40;99.90;;;;;;5073893;28;20389;-68
2021/03/16 02:02:55;;;;;;;18.52;13.65;;;4.50;99.90;;;;;;5074970;28;20479;-67
2021/03/16 02:05:21;;;;;;;16.13;12.23;;;4.50;99.90;;;;;;5074879;28;20268;-69
2021/03/16 02:08:06;;;;;;;15.40;12.30;;;4.30;99.90;;;;;;5074844;28;20181;-68
2021/03/16 02:10:54;;;;;;;14.82;12.32;;;4.30;99.90;;;;;;5075038;28;20267;-67
2021/03/16 02:13:34;;;;;;;14.20;11.90;;;4.30;99.90;;;;;;5074714;28;20215;-66
2021/03/16 02:16:11;;;;;;;13.73;12.20;;;4.30;99.90;;;;;;5075078;28;20204;-68
2021/03/16 02:18:43;;;;;;;16.27;12.73;;;4.30;99.90;;;;;;5074637;28;20212;-67
2021/03/16 02:21:21;;;;;;;17.77;12.77;;;4.40;99.90;;;;;;5074998;28;20680;-68
2021/03/16 02:24:06;;;;;;;15.95;13.00;;;4.40;99.90;;;;;;5073264;28;20197;-68
2021/03/16 02:26:59;;;;;;;14.10;12.35;;;4.40;99.90;;;;;;5073318;28;20220;-68
2021/03/16 02:29:41;;;;;;;14.38;12.05;;;4.30;99.90;;;;;;5074456;28;20197;-67
2021/03/16 02:32:20;;;;;;;13.85;11.18;;;4.20;99.90;;;;;;5073506;28;20651;-67
2021/03/16 02:34:50;;;;;;;14.60;11.38;;;4.20;99.90;;;;;;5073861;28;20337;-68
2021/03/16 02:37:18;;;;;;;15.63;11.82;;;4.20;99.90;;;;;;5074944;28;20180;-66
2021/03/16 02:39:45;;;;;;;12.98;11.27;;;4.20;99.90;;;;;;5072863;28;20685;-67
2021/03/16 02:42:12;;;;;;;17.70;12.50;;;4.20;99.90;;;;;;5074210;28;20307;-67
2021/03/16 02:44:39;;;;;;;16.15;12.52;;;4.20;99.90;;;;;;5074061;28;20186;-69
2021/03/16 02:47:05;;;;;;;14.93;11.38;;;4.10;99.90;;;;;;5073064;28;20181;-67
2021/03/16 02:49:35;;;;;;;15.10;11.50;;;4.20;99.90;;;;;;5074012;28;20733;-69
2021/03/16 02:52:02;;;;;;;14.20;11.68;;;4.10;99.90;;;;;;5074576;28;20801;-66
2021/03/16 02:54:30;;;;;;;13.43;11.55;;;4.10;99.90;;;;;;5072647;28;20197;-67
2021/03/16 02:56:57;;;;;;;15.48;12.00;;;4.10;99.90;;;;;;5074595;28;20181;-68
2021/03/16 02:59:24;;;;;;;15.00;11.90;;;4.20;99.90;;;;;;5073878;28;20232;-68
2021/03/16 03:01:51;;;;;;;16.50;12.23;;;4.20;99.90;;;;;;5074310;28;20172;-68
2021/03/16 03:04:18;;;;;;;14.90;12.40;;;4.00;99.90;;;;;;5073891;28;20248;-67
2021/03/16 03:06:44;;;;;;;15.27;12.30;;;4.00;99.90;;;;;;5074295;28;20271;-68
2021/03/16 03:09:11;;;;;;;17.97;12.60;;;4.00;99.90;;;;;;5073942;28;20709;-67
2021/03/16 03:11:37;;;;;;;18.15;13.10;;;4.00;99.90;;;;;;5074224;28;20453;-68
2021/03/16 03:14:05;;;;;;;14.77;12.53;;;3.90;99.90;;;;;;5073718;28;20213;-68
2021/03/16 03:16:31;;;;;;;14.13;12.02;;;3.90;99.90;;;;;;5074038;28;20177;-69
2021/03/16 03:18:57;;;;;;;15.73;11.90;;;3.80;99.90;;;;;;5073626;28;20261;-66
2021/03/16 03:21:38;;;;;;;15.18;11.48;;;4.00;99.90;;;;;;5072573;28;20410;-68
2021/03/16 03:24:10;;;;;;;14.23;11.88;;;3.80;99.90;;;;;;5073759;28;20605;-67
2021/03/16 03:26:49;;;;;;;17.60;13.00;;;3.80;99.90;;;;;;5072520;28;20189;-68
2021/03/16 03:29:15;;;;;;;15.88;12.68;;;3.90;99.90;;;;;;5073588;28;20189;-68
2021/03/16 03:31:44;;;;;;;18.35;12.75;;;3.90;99.90;;;;;;5073914;28;20173;-68
2021/03/16 03:34:12;;;;;;;14.27;11.98;;;3.90;99.90;;;;;;5073638;28;20189;-66
2021/03/16 03:36:40;;;;;;;16.70;13.15;;;3.90;99.90;;;;;;5073918;28;20178;-68
2021/03/16 03:39:06;;;;;;;16.80;13.18;;;3.80;99.90;;;;;;5073493;28;20225;-68
2021/03/16 03:41:34;;;;;;;18.52;12.98;;;3.90;99.90;;;;;;5073527;28;20315;-66
2021/03/16 03:44:02;;;;;;;20.05;12.60;;;3.90;99.90;;;;;;5072312;28;20228;-66
2021/03/16 03:46:32;;;;;;;14.48;12.95;;;3.70;99.90;;;;;;5074619;28;20177;-66
2021/03/16 03:49:01;;;;;;;17.67;13.25;;;3.60;99.90;;;;;;5076216;28;20189;-67
2021/03/16 03:51:27;;;;;;;17.10;12.60;;;3.70;99.90;;;;;;5076339;28;20193;-67
2021/03/16 03:53:53;;;;;;;16.95;13.45;;;3.70;99.90;;;;;;5076196;28;20216;-68
2021/03/16 03:56:20;;;;;;;17.20;13.45;;;3.60;99.90;;;;;;5077598;28;20230;-67
2021/03/16 03:58:46;;;;;;;14.90;12.75;;;3.60;99.90;;;;;;5077206;28;20248;-67
2021/03/16 04:01:13;;;;;;;19.27;14.55;;;3.60;99.90;;;;;;5077606;28;20173;-68
2021/03/16 04:03:39;;;;;;;14.65;12.73;;;3.50;99.90;;;;;;5076009;28;20723;-68
2021/03/16 04:06:05;;;;;;;20.33;14.20;;;3.50;99.90;;;;;;5076053;28;20208;-67
2021/03/16 04:08:31;;;;;;;18.10;14.55;;;3.50;99.90;;;;;;5077032;28;20243;-68
2021/03/16 04:11:00;;;;;;;17.38;12.55;;;3.60;99.90;;;;;;5077275;28;20223;-67
2021/03/16 04:13:26;;;;;;;17.63;13.32;;;3.60;99.90;;;;;;5077118;28;20194;-67
2021/03/16 04:15:52;;;;;;;16.00;14.07;;;3.60;99.90;;;;;;5077245;28;20185;-67
2021/03/16 04:18:18;;;;;;;20.67;14.23;;;3.50;99.90;;;;;;5075563;28;20212;-66
2021/03/16 04:20:44;;;;;;;15.75;13.70;;;3.50;99.90;;;;;;5077101;28;20238;-68
2021/03/16 04:23:11;;;;;;;17.75;13.00;;;3.50;99.90;;;;;;5076753;28;20664;-68
2021/03/16 04:25:37;;;;;;;20.10;14.75;;;3.60;99.90;;;;;;5076744;28;20238;-67
2021/03/16 04:28:03;;;;;;;18.33;14.57;;;3.50;99.90;;;;;;5076781;28;20705;-68
2021/03/16 04:30:28;;;;;;;17.83;13.30;;;3.60;99.90;;;;;;5076863;28;20212;-67
2021/03/16 04:32:54;;;;;;;16.50;13.63;;;3.60;99.90;;;;;;5076810;28;20193;-69
2021/03/16 04:35:19;;;;;;;16.93;14.17;;;3.50;99.90;;;;;;5076717;28;20181;-66
2021/03/16 04:37:45;;;;;;;17.53;13.70;;;3.50;99.90;;;;;;5076545;28;20634;-68
2021/03/16 04:40:11;;;;;;;21.73;14.13;;;3.60;99.90;;;;;;5076479;28;20708;-68
2021/03/16 04:42:37;;;;;;;17.83;13.95;;;3.60;99.90;;;;;;5075612;28;20586;-68
2021/03/16 04:45:04;;;;;;;18.37;13.50;;;3.60;99.90;;;;;;5073960;28;20184;-67
2021/03/16 04:47:30;;;;;;;18.90;14.02;;;4.00;99.90;;;;;;5073977;28;20183;-68
2021/03/16 04:49:55;;;;;;;19.47;12.80;;;4.20;99.90;;;;;;5075313;28;20582;-68
2021/03/16 04:52:21;;;;;;;19.00;14.70;;;4.50;99.90;;;;;;5075685;28;20210;-66
2021/03/16 04:54:46;;;;;;;19.17;14.13;;;4.80;99.90;;;;;;5075092;28;20208;-67
2021/03/16 04:57:12;;;;;;;19.10;13.47;;;4.70;99.90;;;;;;5075284;28;20178;-66
2021/03/16 04:59:38;;;;;;;18.20;13.67;;;4.80;99.90;;;;;;5075019;28;20722;-67
2021/03/16 05:02:04;;;;;;;17.20;12.93;;;4.60;99.90;;;;;;5074128;28;20298;-69
2021/03/16 05:04:29;;;;;;;17.55;13.95;;;4.60;99.90;;;;;;5073678;28;20412;-67
2021/03/16 05:06:55;;;;;;;20.00;14.30;;;4.60;99.90;;;;;;5075463;28;20185;-67
2021/03/16 05:09:21;;;;;;;17.87;13.00;;;4.60;99.90;;;;;;5074926;28;20268;-66
2021/03/16 05:11:46;;;;;;;15.80;13.30;;;4.70;99.90;;;;;;5078518;28;20188;-66
2021/03/16 05:14:12;;;;;;;21.73;14.13;;;4.50;99.90;;;;;;5074685;28;20196;-68
2021/03/16 05:16:37;;;;;;;17.00;13.20;;;4.80;99.90;;;;;;5074879;28;20534;-66
2021/03/16 05:19:03;;;;;;;18.27;13.60;;;4.90;99.90;;;;;;5074593;28;20257;-67
2021/03/16 05:21:30;;;;;;;18.00;13.02;;;5.00;99.90;;;;;;5075068;28;20181;-69
2021/03/16 05:23:56;;;;;;;17.60;13.35;;;5.00;99.90;;;;;;5074690;28;20201;-68
2021/03/16 05:26:22;;;;;;;17.80;13.33;;;4.70;99.90;;;;;;5076022;28;20200;-69
2021/03/16 05:28:49;;;;;;;18.95;13.90;;;4.90;99.90;;;;;;5079677;28;20435;-67
2021/03/16 05:31:15;;;;;;;17.13;13.57;;;5.00;99.90;;;;;;5080553;28;20181;-69
2021/03/16 05:33:40;;;;;;;19.00;13.93;;;4.90;99.90;;;;;;5085740;28;20225;-68
2021/03/16 05:36:06;;;;;;;18.23;14.47;;;5.00;99.90;;;;;;5084128;28;20641;-66
2021/03/16 05:38:32;;;;;;;18.80;13.63;;;5.30;99.90;;;;;;5075524;28;20213;-66
2021/03/16 05:40:59;;;;;;;19.50;12.83;;;5.00;99.90;;;;;;5052172;28;595022;-69
2021/03/16 05:43:25;;;;;;;15.32;11.93;;;5.20;99.90;;;;;;5074811;28;20197;-66
2021/03/16 05:45:56;;;;;;;15.77;12.40;;;5.30;99.90;;;;;;5073085;28;20184;-66
2021/03/16 05:48:24;;;;;;;16.58;10.93;;;5.40;99.90;;;;;;5074116;28;20205;-67
2021/03/16 05:50:52;;;;;;;17.05;11.82;;;5.90;99.90;;;;;;5073269;28;20655;-66
2021/03/16 05:53:17;;;;;;;18.88;11.55;;;6.80;99.90;;;;;;5074369;28;20272;-67
2021/03/16 05:55:44;;;;;;;10.07;7.47;;;7.40;99.90;;;;;;5074612;28;20666;-67
2021/03/16 05:58:09;;;;;;;2.97;2.42;;;7.80;99.90;;;;;;5074616;28;20442;-66
2021/03/16 06:00:35;;;;;;;20.67;11.23;;;8.20;99.90;;;;;;5075137;28;20626;-68
2021/03/16 06:03:01;;;;;;;16.60;11.17;;;8.50;99.90;;;;;;5073743;28;20255;-67
2021/03/16 06:05:27;;;;;;;18.27;13.40;;;8.70;99.90;;;;;;5075096;28;20417;-69
2021/03/16 06:07:53;;;;;;;16.17;12.23;;;8.90;99.90;;;;;;5074955;28;20475;-68
2021/03/16 06:10:20;;;;;;;15.83;13.60;;;9.00;99.90;;;;;;5074172;28;20633;-67
2021/03/16 06:12:47;;;;;;;15.30;13.20;;;8.10;99.90;;;;;;5073426;28;20208;-67
2021/03/16 06:15:13;;;;;;;20.73;14.60;;;7.40;99.90;;;;;;5074798;28;20169;-67
2021/03/16 06:17:48;;;;;;;16.77;13.50;;;7.00;99.90;;;;;;5074665;28;20254;-68
2021/03/16 06:20:56;;;;;;;18.38;15.32;;;7.00;99.90;;;;;;5073908;28;20227;-66
2021/03/16 06:23:32;;;;;;;22.60;16.50;;;6.40;99.90;;;;;;5054571;28;20225;-66
2021/03/16 06:25:58;;;;;;;20.05;15.20;;;5.10;99.90;;;;;;5074944;28;20165;-67
2021/03/16 06:28:31;;;;;;;24.80;16.80;;;4.70;99.90;;;;;;5073192;28;20604;-66
2021/03/16 06:30:56;;;;;;;17.92;15.18;;;4.70;99.90;;;;;;5073244;28;20246;-67
2021/03/16 06:33:25;;;;;;;19.43;14.20;;;4.70;99.90;;;;;;5073079;28;20266;-67
2021/03/16 06:35:59;;;;;;;17.58;13.55;;;4.70;99.90;;;;;;5073122;28;20181;-66
2021/03/16 06:38:25;;;;;;;17.65;15.00;;;4.60;99.90;;;;;;5072994;28;20801;-68
2021/03/16 06:40:51;;;;;;;20.17;15.00;;;4.70;99.90;;;;;;5073260;28;20231;-68
2021/03/16 06:43:17;;;;;;;16.90;14.33;;;4.60;99.90;;;;;;5080701;28;20221;-69
2021/03/16 06:45:43;;;;;;;18.60;14.20;;;4.70;99.90;;;;;;5094477;28;20763;-69
2021/03/16 06:48:22;;;;;;;20.43;14.90;;;4.70;99.90;;;;;;5089037;28;20205;-67
2021/03/16 06:50:49;;;;;;;19.70;14.60;;;4.80;99.90;;;;;;5090076;28;20267;-67
2021/03/16 06:53:20;;;;;;;19.83;14.95;;;4.80;99.90;;;;;;5093600;28;20208;-66
2021/03/16 06:55:51;;;;;;;18.73;15.38;;;4.90;99.90;;;;;;5092704;28;20184;-69
2021/03/16 06:58:16;;;;;;;23.13;16.33;;;4.90;99.90;;;;;;5090331;28;20693;-69
2021/03/16 07:00:42;;;;;;;23.63;17.73;;;4.90;99.90;;;;;;5087889;28;20182;-69
2021/03/16 07:03:14;;;;;;;25.10;20.50;;;5.10;99.90;;;;;;5090287;28;20692;-67
2021/03/16 07:05:40;;;;;;;28.17;19.10;;;5.20;99.90;;;;;;5092891;28;20180;-67
2021/03/16 07:08:08;;;;;;;21.83;17.20;;;5.40;99.90;;;;;;5100355;28;20704;-68
2021/03/16 07:10:39;;;;;;;20.35;15.98;;;5.30;99.90;;;;;;5083894;28;20395;-66
2021/03/16 07:13:05;;;;;;;19.88;15.18;;;5.30;99.90;;;;;;5089988;28;20212;-67
2021/03/16 07:15:31;;;;;;;25.40;16.83;;;5.40;99.90;;;;;;5108701;27;20180;-69
2021/03/16 07:17:58;;;;;;;21.20;16.77;;;5.40;99.90;;;;;;5092664;28;20655;-67
2021/03/16 07:20:28;;;;;;;22.85;17.42;;;5.60;99.90;;;;;;5094264;28;20224;-67
2021/03/16 07:22:56;;;;;;;22.20;17.13;;;5.40;99.90;;;;;;5095474;28;20204;-68
2021/03/16 07:25:22;;;;;;;23.42;17.63;;;5.50;99.90;;;;;;5099597;28;20187;-67
2021/03/16 07:27:49;;;;;;;19.15;16.60;;;5.50;99.90;;;;;;5090692;28;20199;-69
2021/03/16 07:30:15;;;;;;;24.20;17.77;;;5.60;99.90;;;;;;5093862;28;20701;-68
2021/03/16 07:32:41;;;;;;;21.30;18.15;;;5.70;99.90;;;;;;5097366;28;20547;-67
2021/03/16 07:35:08;;;;;;;20.35;17.67;;;5.70;99.90;;;;;;5090477;28;20169;-69
2021/03/16 07:37:34;;;;;;;22.63;17.52;;;5.90;99.90;;;;;;5091269;28;20919;-67
2021/03/16 07:40:06;;;;;;;18.92;16.48;;;5.90;99.90;;;;;;5091979;28;20207;-69
2021/03/16 07:42:34;;;;;;;21.77;16.38;;;5.90;99.90;;;;;;5101206;28;20244;-68
2021/03/16 07:44:59;;;;;;;23.13;17.63;;;6.00;99.90;;;;;;5084154;28;20726;-70
2021/03/16 07:47:38;;;;;;;19.87;17.00;;;6.10;99.90;;;;;;5100432;28;20225;-69
2021/03/16 07:50:07;;;;;;;19.45;15.88;;;6.00;99.90;;;;;;5104130;28;20172;-68
2021/03/16 07:52:44;;;;;;;22.08;15.60;;;6.20;99.90;;;;;;5099059;28;20530;-69
2021/03/16 07:55:12;;;;;;;24.20;16.77;;;6.20;99.90;;;;;;5104902;28;20198;-67
2021/03/16 07:57:37;;;;;;;21.38;16.05;;;6.40;99.90;;;;;;5098951;28;20306;-68
2021/03/16 08:00:09;;;;;;;22.20;17.10;;;6.50;99.90;;;;;;5086290;28;20370;-67
2021/03/16 08:02:36;;;;;;;20.40;16.25;;;6.70;99.90;;;;;;5090445;28;20271;-69
2021/03/16 08:05:16;;;;;;;21.55;17.25;;;6.70;99.90;;;;;;5094771;28;20198;-68
2021/03/16 08:07:42;;;;;;;19.33;17.10;;;6.90;99.90;;;;;;5111200;28;20258;-67
2021/03/16 08:10:09;;;;;;;22.20;17.63;;;7.10;99.90;;;;;;5100559;28;20773;-67
2021/03/16 08:12:34;;;;;;;21.95;16.77;;;7.10;99.90;;;;;;5104894;28;20184;-69
2021/03/16 08:15:14;;;;;;;21.43;16.20;;;7.20;99.90;;;;;;5087697;28;20181;-70
2021/03/16 08:17:40;;;;;;;24.50;17.88;;;7.40;99.90;;;;;;5094998;28;20249;-67
2021/03/16 08:20:06;;;;;;;22.85;17.25;;;7.50;99.90;;;;;;5087220;28;20227;-69
2021/03/16 08:22:33;;;;;;;21.23;18.08;;;7.60;99.90;;;;;;5089227;28;20558;-69
2021/03/16 08:25:03;;;;;;;24.95;20.50;;;7.60;99.90;;;;;;5077199;28;20184;-70
2021/03/16 08:27:30;;;;;;;21.08;17.60;;;7.70;99.90;;;;;;5085336;28;20663;-68
2021/03/16 08:29:56;;;;;;;18.33;15.52;;;7.80;99.90;;;;;;5082689;28;20242;-69
2021/03/16 08:32:23;;;;;;;21.42;16.40;;;7.90;99.90;;;;;;5090061;28;20188;-70
2021/03/16 08:34:49;;;;;;;18.85;16.42;;;8.10;99.90;;;;;;5095606;28;20285;-68
2021/03/16 08:37:33;;;;;;;17.85;15.25;;;8.10;99.90;;;;;;5094937;28;20184;-70
2021/03/16 08:40:00;;;;;;;21.30;16.83;;;8.00;99.90;;;;;;5084554;28;20306;-70
2021/03/16 08:42:27;;;;;;;20.65;16.73;;;7.90;99.90;;;;;;5096249;28;20228;-70
2021/03/16 08:44:54;;;;;;;20.80;16.60;;;7.90;99.90;;;;;;5094661;28;20208;-68
2021/03/16 08:47:22;;;;;;;22.58;17.00;;;8.00;99.90;;;;;;5094410;28;20187;-68
2021/03/16 08:49:50;;;;;;;18.90;15.57;;;8.00;99.90;;;;;;5091733;28;20262;-69
2021/03/16 08:52:19;;;;;;;21.33;17.90;;;8.00;99.90;;;;;;5091434;28;20176;-70
2021/03/16 08:54:45;;;;;;;20.90;17.50;;;8.00;99.90;;;;;;5091318;28;20202;-69
2021/03/16 08:57:16;;;;;;;21.30;16.42;;;8.20;99.90;;;;;;5088121;28;20183;-70
2021/03/16 08:59:46;;;;;;;18.88;15.43;;;8.30;99.90;;;;;;5094098;28;20304;-68
2021/03/16 09:02:21;;;;;;;22.90;18.90;;;8.30;99.90;;;;;;5080659;28;20594;-68
2021/03/16 09:04:47;;;;;;;22.40;17.92;;;8.40;99.90;;;;;;5096391;28;20200;-68
2021/03/16 09:07:21;;;;;;;23.40;19.10;;;8.50;99.90;;;;;;5099635;28;20188;-68
2021/03/16 09:09:46;;;;;;;24.10;18.80;;;8.60;99.90;;;;;;5096286;28;20619;-69
2021/03/16 09:12:13;;;;;;;22.30;18.20;;;8.80;99.90;;;;;;5091599;28;20184;-68
2021/03/16 09:14:39;;;;;;;21.20;17.77;;;8.90;99.90;;;;;;5095436;28;20232;-68
2021/03/16 09:17:05;;;;;;;19.80;15.23;;;9.00;99.90;;;;;;5090533;28;20242;-69
2021/03/16 09:19:32;;;;;;;18.52;15.88;;;9.30;99.90;;;;;;5104049;28;20220;-70
2021/03/16 09:22:00;;;;;;;22.20;16.30;;;9.40;99.90;;;;;;5094003;28;20515;-68
2021/03/16 09:24:28;;;;;;;22.50;16.17;;;9.60;99.90;;;;;;5092857;28;20211;-69
2021/03/16 09:26:59;;;;;;;18.35;16.35;;;9.90;99.90;;;;;;5094735;28;20260;-70
2021/03/16 09:29:28;;;;;;;18.98;15.35;;;10.10;99.90;;;;;;5095200;28;20216;-68
2021/03/16 09:31:54;;;;;;;20.60;15.55;;;10.40;99.90;;;;;;5094578;28;20618;-68
2021/03/16 09:34:20;;;;;;;21.40;15.10;;;10.70;99.90;;;;;;5100148;28;20293;-68
2021/03/16 09:36:56;;;;;;;18.13;15.60;;;11.00;99.90;;;;;;5096245;28;20172;-68
2021/03/16 09:39:23;;;;;;;30.73;23.45;;;11.40;99.90;;;;;;5103440;28;20986;-70
2021/03/16 09:41:54;;;;;;;20.77;18.58;;;11.70;99.90;;;;;;5096935;28;20227;-68
2021/03/16 09:44:37;;;;;;;18.13;15.55;;;11.80;99.90;;;;;;5087999;28;20232;-69
2021/03/16 09:47:04;;;;;;;18.00;16.13;;;12.10;99.90;;;;;;5095077;28;20180;-69
2021/03/16 09:49:34;;;;;;;15.07;13.50;;;12.30;98.00;;;;;;5096015;28;20468;-69
2021/03/16 09:52:10;;;;;;;19.20;16.20;;;12.50;97.60;;;;;;5097989;28;20806;-69
2021/03/16 09:54:46;;;;;;;15.10;13.50;;;12.60;97.70;;;;;;5093603;28;21541;-68
2021/03/16 09:57:16;;;;;;;18.03;16.13;;;12.80;95.70;;;;;;5094653;28;20412;-69
2021/03/16 09:59:45;;;;;;;18.03;15.07;;;12.80;95.90;;;;;;5095412;28;20484;-68
2021/03/16 10:02:12;;;;;;;17.20;15.30;;;13.00;96.20;;;;;;5093490;28;20431;-68
2021/03/16 10:04:44;;;;;;;16.70;14.50;;;13.00;97.20;;;;;;5094197;28;20445;-69
2021/03/16 10:07:10;;;;;;;15.30;13.73;;;13.30;95.40;;;;;;5092828;28;20441;-69
2021/03/16 10:09:41;;;;;;;15.80;14.13;;;13.30;95.50;;;;;;5097391;28;20450;-69
2021/03/16 10:12:22;;;;;;;15.23;13.63;;;13.50;93.60;;;;;;5093676;28;20424;-69
2021/03/16 10:14:52;;;;;;;13.63;12.33;;;13.80;92.00;;;;;;5104926;28;20885;-69
2021/03/16 10:17:29;;;;;;;14.90;13.40;;;13.90;92.70;;;;;;5088380;28;20441;-69
2021/03/16 10:20:05;;;;;;;17.10;15.30;;;14.20;90.50;;;;;;5081977;28;20477;-70
2021/03/16 10:22:33;;;;;;;18.53;16.00;;;13.90;91.30;;;;;;5093594;28;20416;-68
2021/03/16 10:25:07;;;;;;;15.57;14.07;;;13.90;91.50;;;;;;5092188;28;20435;-69
2021/03/16 10:27:33;;;;;;;16.00;13.97;;;13.80;91.40;;;;;;5089739;28;20801;-69
2021/03/16 10:30:08;;;;;;;14.83;13.10;;;14.00;89.90;;;;;;5089167;28;20439;-71
2021/03/16 10:32:34;;;;;;;15.73;14.20;;;13.90;89.80;;;;;;5095243;28;20435;-70
2021/03/16 10:35:00;;;;;;;15.77;14.13;;;13.90;88.60;;;;;;5092258;28;20515;-70
2021/03/16 10:37:26;;;;;;;15.70;13.53;;;13.80;89.50;;;;;;5091205;28;20520;-70
2021/03/16 10:39:55;;;;;;;17.87;16.07;;;13.70;90.20;;;;;;5094178;28;20297;-69
2021/03/16 10:42:20;;;;;;;16.23;14.70;;;13.90;88.90;;;;;;5094164;28;20461;-71
2021/03/16 10:44:46;;;;;;;16.07;14.30;;;14.00;88.50;;;;;;5093558;28;20456;-70
2021/03/16 10:47:13;;;;;;;17.23;13.60;;;13.80;88.50;;;;;;5089019;28;20176;-69
2021/03/16 10:49:39;;;;;;;14.63;13.10;;;14.00;89.10;;;;;;5087757;28;20201;-69
2021/03/16 10:52:05;;;;;;;14.57;12.97;;;14.00;87.80;;;;;;5092345;28;20429;-69
2021/03/16 10:54:31;;;;;;;15.10;13.50;;;14.10;86.50;;;;;;5090692;28;20461;-69
2021/03/16 10:56:57;;;;;;;13.83;12.43;;;14.00;88.40;;;;;;5091849;28;20946;-69
2021/03/16 10:59:23;;;;;;;14.90;13.20;;;14.10;83.40;;;;;;5088117;28;20708;-69
2021/03/16 11:01:50;;;;;;;14.90;11.93;;;14.00;84.20;;;;;;5089107;28;20431;-69
2021/03/16 11:04:17;;;;;;;13.30;11.83;;;14.30;85.30;;;;;;5088162;28;20962;-71
2021/03/16 11:06:46;;;;;;;12.97;11.67;;;14.90;81.10;;;;;;5083899;28;20425;-69
2021/03/16 11:09:13;;;;;;;13.70;12.40;;;14.70;79.80;;;;;;5070672;28;20437;-69
2021/03/16 11:11:39;;;;;;;14.20;12.70;;;14.40;77.30;;;;;;5081920;28;20485;-68
2021/03/16 11:14:05;;;;;;;13.70;12.30;;;14.20;81.30;;;;;;5089367;28;20445;-69
2021/03/16 11:16:30;;;;;;;15.50;13.60;;;14.10;80.80;;;;;;5090326;28;20454;-69
2021/03/16 11:18:56;;;;;;;17.30;13.43;;;14.30;81.80;;;;;;5090072;28;20220;-69
2021/03/16 11:21:21;;;;;;;13.40;12.00;;;14.50;81.80;;;;;;5090187;28;20269;-70
2021/03/16 11:23:47;;;;;;;14.10;12.47;;;14.50;80.50;;;;;;5089644;28;20208;-69
2021/03/16 11:26:13;;;;;;;13.57;12.27;;;14.60;77.70;;;;;;5088314;28;20233;-70
2021/03/16 11:28:38;;;;;;;15.03;11.07;;;14.60;81.90;;;;;;5091277;28;20577;-70
2021/03/16 11:31:04;;;;;;;12.97;11.67;;;14.80;78.00;;;;;;5091263;28;20550;-70
2021/03/16 11:33:29;;;;;;;14.10;12.70;;;15.20;77.60;;;;;;5093629;28;20208;-69
2021/03/16 11:35:55;;;;;;;17.10;12.23;;;15.20;74.90;;;;;;5093656;28;20208;-70
2021/03/16 11:38:20;;;;;;;15.60;14.07;;;15.30;74.70;;;;;;5092404;28;20586;-70
2021/03/16 11:40:46;;;;;;;16.13;14.30;;;15.30;76.50;;;;;;5092182;28;20188;-71
2021/03/16 11:43:12;;;;;;;19.10;16.93;;;15.00;73.60;;;;;;5093649;28;20250;-69
2021/03/16 11:45:39;;;;;;;15.70;13.93;;;14.70;76.10;;;;;;5093041;28;20498;-69
2021/03/16 11:48:05;;;;;;;12.37;10.37;;;14.90;73.40;;;;;;5090717;28;20211;-68
2021/03/16 11:50:31;;;;;;;14.57;12.83;;;15.00;75.00;;;;;;5097327;28;20468;-70
2021/03/16 11:52:56;;;;;;;14.03;11.23;;;15.40;72.60;;;;;;5092216;28;21008;-69
2021/03/16 11:55:22;;;;;;;14.50;12.57;;;15.70;74.30;;;;;;5092129;28;20208;-69
2021/03/16 11:57:48;;;;;;;16.53;13.77;;;16.00;73.90;;;;;;5093587;28;20683;-69
2021/03/16 12:00:14;;;;;;;12.70;10.87;;;15.90;71.30;;;;;;5091403;28;20212;-69
2021/03/16 12:02:39;;;;;;;13.80;12.33;;;15.60;74.20;;;;;;5100010;28;20234;-69
2021/03/16 12:05:05;;;;;;;13.27;11.30;;;15.70;72.10;;;;;;5092604;28;20918;-71
2021/03/16 12:07:31;;;;;;;13.80;11.80;;;15.70;71.60;;;;;;5091066;28;20241;-69
2021/03/16 12:09:57;;;;;;;14.40;10.80;;;16.10;71.80;;;;;;5094379;28;20412;-69
2021/03/16 12:12:23;;;;;;;13.30;11.90;;;15.90;72.10;;;;;;5094123;28;20518;-70
2021/03/16 12:14:48;;;;;;;13.03;11.70;;;15.90;70.90;;;;;;5094170;28;20468;-69
2021/03/16 12:17:14;;;;;;;12.07;10.50;;;15.90;69.00;;;;;;5092455;28;20185;-70
2021/03/16 12:19:41;;;;;;;12.20;11.00;;;15.50;69.40;;;;;;5081630;28;20302;-69
2021/03/16 12:22:07;;;;;;;13.73;12.37;;;15.40;69.10;;;;;;5092087;28;20523;-69
2021/03/16 12:24:33;;;;;;;14.80;11.40;;;15.50;69.00;;;;;;5092884;28;20750;-71
2021/03/16 12:26:58;;;;;;;14.57;13.03;;;15.70;67.20;;;;;;5091430;28;21151;-69
2021/03/16 12:29:24;;;;;;;12.63;11.17;;;15.20;67.70;;;;;;5091421;28;20705;-69
2021/03/16 12:31:50;;;;;;;13.03;11.73;;;14.70;69.50;;;;;;5092105;28;20176;-71
2021/03/16 12:34:15;;;;;;;16.70;12.53;;;14.60;69.60;;;;;;5103435;28;20713;-69
2021/03/16 12:36:41;;;;;;;16.03;11.00;;;14.50;67.90;;;;;;5094922;28;20180;-68